Time;durP1;ratioP1;P1;durP2;ratioP2;P2;SDS_P1;SDS_P2;PMS_P1;PMS_P2;Temp;Humidity;BMP_temperature;BMP_pressure;BME280_temperature;BME280_humidity;BME280_pressure;Samples;Min_cycle;Max_cycle;Signal;HPM_P1;HPM_P2
2024/01/02 00:01:34;;;;;;;7.63;1.30;;;7.80;69.90;;;;;;4925776;28;20212;-73
2024/01/02 00:04:00;;;;;;;2.10;1.23;;;7.80;69.90;;;;;;4933954;28;21055;-72
2024/01/02 00:06:25;;;;;;;3.13;1.30;;;7.80;69.90;;;;;;4931058;28;20531;-74
2024/01/02 00:08:51;;;;;;;4.50;1.20;;;7.80;70.10;;;;;;4944106;28;20203;-72
2024/01/02 00:11:16;;;;;;;1.43;1.00;;;7.80;70.10;;;;;;4929677;28;20688;-71
2024/01/02 00:13:42;;;;;;;2.83;1.20;;;7.80;70.20;;;;;;4935032;28;20192;-72
2024/01/02 00:16:08;;;;;;;5.50;1.37;;;7.80;70.20;;;;;;4930878;28;20192;-74
2024/01/02 00:18:34;;;;;;;3.23;1.73;;;7.80;70.20;;;;;;4932265;28;20212;-73
2024/01/02 00:21:00;;;;;;;3.17;1.13;;;7.80;70.20;;;;;;4927657;28;21023;-74
2024/01/02 00:23:26;;;;;;;3.07;1.27;;;7.90;70.50;;;;;;4932408;29;20472;-75
2024/01/02 00:25:51;;;;;;;2.90;1.17;;;7.90;70.20;;;;;;4928545;28;20508;-71
2024/01/02 00:28:18;;;;;;;4.97;1.33;;;7.90;70.20;;;;;;4933102;28;20180;-71
2024/01/02 00:30:43;;;;;;;2.97;1.23;;;7.90;70.50;;;;;;4928468;28;20258;-71
2024/01/02 00:33:09;;;;;;;5.13;1.40;;;7.80;70.50;;;;;;4932082;29;20445;-72
2024/01/02 00:35:35;;;;;;;5.27;1.00;;;7.90;70.70;;;;;;4931582;28;20195;-73
2024/01/02 00:38:00;;;;;;;2.70;1.17;;;7.90;70.50;;;;;;4927437;28;20224;-72
2024/01/02 00:40:26;;;;;;;2.30;1.13;;;7.90;70.50;;;;;;4928333;28;20213;-72
2024/01/02 00:42:52;;;;;;;2.67;1.47;;;7.90;70.70;;;;;;4931851;29;20444;-72
2024/01/02 00:45:18;;;;;;;1.90;1.10;;;7.90;70.70;;;;;;4930213;28;20429;-73
2024/01/02 00:47:44;;;;;;;1.90;0.90;;;7.90;70.70;;;;;;4931753;28;20664;-73
2024/01/02 00:50:10;;;;;;;1.77;1.07;;;7.90;70.70;;;;;;4925518;28;20445;-73
2024/01/02 00:52:36;;;;;;;4.63;1.00;;;7.90;70.70;;;;;;4930132;29;20251;-74
2024/01/02 00:55:03;;;;;;;2.47;1.30;;;7.90;70.70;;;;;;4932070;28;20413;-73
2024/01/02 00:57:29;;;;;;;3.13;1.00;;;7.90;70.50;;;;;;4930752;28;20207;-73
2024/01/02 00:59:54;;;;;;;2.40;1.13;;;7.90;70.70;;;;;;4927157;28;20468;-72
2024/01/02 01:02:20;;;;;;;4.93;1.10;;;7.90;70.50;;;;;;4930339;28;20676;-74
2024/01/02 01:04:46;;;;;;;3.80;1.43;;;7.90;70.50;;;;;;4930239;28;20217;-72
2024/01/02 01:07:12;;;;;;;2.70;0.93;;;7.90;70.50;;;;;;4929614;28;20189;-74
2024/01/02 01:09:38;;;;;;;2.63;0.97;;;7.90;70.50;;;;;;4931937;28;20420;-74
2024/01/02 01:12:04;;;;;;;3.00;1.10;;;7.90;70.50;;;;;;4926515;29;20267;-73
2024/01/02 01:14:30;;;;;;;2.87;1.10;;;7.90;70.50;;;;;;4931999;28;20444;-73
2024/01/02 01:16:56;;;;;;;4.30;1.50;;;7.90;70.50;;;;;;4928339;28;20841;-73
2024/01/02 01:19:21;;;;;;;3.13;1.10;;;7.90;70.50;;;;;;4932488;28;20420;-74
2024/01/02 01:21:47;;;;;;;1.80;0.70;;;7.90;70.50;;;;;;4925368;29;20208;-74
2024/01/02 01:24:13;;;;;;;2.33;1.03;;;7.90;70.70;;;;;;4926771;28;20654;-74
2024/01/02 01:26:38;;;;;;;3.10;1.07;;;7.90;70.50;;;;;;4928017;28;20185;-74
2024/01/02 01:29:04;;;;;;;1.97;1.03;;;7.90;70.50;;;;;;4931530;28;20204;-71
2024/01/02 01:31:29;;;;;;;2.30;1.10;;;7.90;70.50;;;;;;4925467;28;20259;-74
2024/01/02 01:33:55;;;;;;;4.07;1.40;;;7.90;70.70;;;;;;4931104;28;20189;-72
2024/01/02 01:36:20;;;;;;;3.00;1.27;;;7.90;70.70;;;;;;4944863;28;20194;-72
2024/01/02 01:38:47;;;;;;;2.93;1.10;;;7.90;70.70;;;;;;4931131;28;20189;-72
2024/01/02 01:41:13;;;;;;;1.83;1.00;;;7.90;70.70;;;;;;4925788;29;20257;-73
2024/01/02 01:43:38;;;;;;;5.70;1.33;;;7.90;70.70;;;;;;4953433;28;20492;-74
2024/01/02 01:46:05;;;;;;;3.00;1.10;;;7.80;70.80;;;;;;4954706;28;20463;-72
2024/01/02 01:48:31;;;;;;;3.00;1.03;;;7.80;70.80;;;;;;4939196;28;20199;-72
2024/01/02 01:50:57;;;;;;;3.80;1.10;;;7.90;71.00;;;;;;4946978;28;20464;-72
2024/01/02 01:53:23;;;;;;;1.63;0.90;;;7.90;70.80;;;;;;4935941;28;20486;-72
2024/01/02 01:55:50;;;;;;;1.60;0.90;;;7.90;70.80;;;;;;4932479;28;20454;-74
2024/01/02 01:58:16;;;;;;;2.73;1.10;;;7.90;70.80;;;;;;4939197;28;20420;-73
2024/01/02 02:00:43;;;;;;;3.00;1.10;;;7.90;70.70;;;;;;4926764;28;20618;-73
2024/01/02 02:03:10;;;;;;;2.93;1.20;;;8.00;70.70;;;;;;4942623;28;20494;-72
2024/01/02 02:05:36;;;;;;;1.33;0.93;;;7.90;70.50;;;;;;4941597;28;20433;-74
2024/01/02 02:08:02;;;;;;;1.20;0.90;;;8.00;70.70;;;;;;4927995;28;20417;-72
2024/01/02 02:10:29;;;;;;;1.97;0.90;;;8.00;70.50;;;;;;4944336;28;20928;-72
2024/01/02 02:12:55;;;;;;;6.13;1.67;;;8.00;70.70;;;;;;4930795;29;20487;-74
2024/01/02 02:15:21;;;;;;;3.63;1.17;;;8.00;70.50;;;;;;4937634;28;20796;-73
2024/01/02 02:17:47;;;;;;;2.83;0.93;;;7.90;70.70;;;;;;4926034;28;20467;-72
2024/01/02 02:20:12;;;;;;;1.87;1.10;;;7.90;70.70;;;;;;4923159;28;21029;-73
2024/01/02 02:22:41;;;;;;;3.07;1.13;;;8.00;70.70;;;;;;4929024;29;20197;-73
2024/01/02 02:25:07;;;;;;;1.40;0.93;;;7.90;70.80;;;;;;4930189;28;20733;-74
2024/01/02 02:27:34;;;;;;;4.70;0.80;;;7.90;71.00;;;;;;4954601;28;20436;-73
2024/01/02 02:30:00;;;;;;;6.70;1.30;;;8.00;70.80;;;;;;4930101;28;20492;-73
2024/01/02 02:32:25;;;;;;;4.33;1.00;;;7.90;71.10;;;;;;4933118;29;20498;-75
2024/01/02 02:34:51;;;;;;;2.37;0.87;;;7.90;71.10;;;;;;4934279;28;20212;-74
2024/01/02 02:37:16;;;;;;;5.50;1.10;;;7.90;71.30;;;;;;4933561;28;20284;-72
2024/01/02 02:39:42;;;;;;;1.77;1.13;;;7.90;71.30;;;;;;4931474;28;20216;-75
2024/01/02 02:42:08;;;;;;;5.90;1.03;;;7.90;71.60;;;;;;4928762;29;20701;-76
2024/01/02 02:44:33;;;;;;;1.63;1.20;;;8.00;71.40;;;;;;4937067;28;20216;-74
2024/01/02 02:46:59;;;;;;;1.20;0.90;;;8.00;71.40;;;;;;4940657;28;20189;-74
2024/01/02 02:49:25;;;;;;;4.63;1.10;;;7.90;71.60;;;;;;4944396;28;20194;-72
2024/01/02 02:51:51;;;;;;;1.47;0.90;;;7.90;71.80;;;;;;4937637;28;20571;-73
2024/01/02 02:54:17;;;;;;;1.60;1.00;;;7.90;72.10;;;;;;4937825;28;20517;-73
2024/01/02 02:56:43;;;;;;;2.37;1.33;;;7.90;72.30;;;;;;4936567;28;20185;-72
2024/01/02 02:59:12;;;;;;;2.50;0.90;;;7.80;72.60;;;;;;4964068;28;20705;-74
2024/01/02 03:01:38;;;;;;;3.20;1.07;;;7.80;72.60;;;;;;4928939;28;20975;-75
2024/01/02 03:04:04;;;;;;;2.70;1.27;;;7.70;72.90;;;;;;4970682;28;20559;-74
2024/01/02 03:06:30;;;;;;;2.20;1.00;;;7.70;73.20;;;;;;4935191;28;20452;-74
2024/01/02 03:08:55;;;;;;;3.23;1.00;;;7.80;73.20;;;;;;4959575;28;20463;-74
2024/01/02 03:11:21;;;;;;;1.83;0.90;;;7.70;73.20;;;;;;4928225;28;20830;-72
2024/01/02 03:13:47;;;;;;;1.37;0.90;;;7.70;73.50;;;;;;4928656;28;20676;-71
2024/01/02 03:16:14;;;;;;;4.10;1.07;;;7.60;73.90;;;;;;4931509;28;20204;-71
2024/01/02 03:18:40;;;;;;;2.97;1.37;;;7.60;74.20;;;;;;4931691;28;20428;-72
2024/01/02 03:21:09;;;;;;;1.53;1.00;;;7.60;74.50;;;;;;4923860;28;20609;-73
2024/01/02 03:23:35;;;;;;;1.40;0.80;;;7.60;74.80;;;;;;4930961;28;20622;-73
2024/01/02 03:26:00;;;;;;;1.83;0.70;;;7.50;75.10;;;;;;4929635;28;20479;-71
2024/01/02 03:28:26;;;;;;;4.60;0.70;;;7.50;75.70;;;;;;4931188;28;20429;-71
2024/01/02 03:30:52;;;;;;;1.80;0.90;;;7.50;76.10;;;;;;4922344;28;20228;-73
2024/01/02 03:33:18;;;;;;;3.23;1.10;;;7.50;76.70;;;;;;4931471;28;20222;-74
2024/01/02 03:35:47;;;;;;;5.27;1.23;;;7.40;77.00;;;;;;4934236;28;20181;-72
2024/01/02 03:38:13;;;;;;;0.87;0.60;;;7.40;77.40;;;;;;4946717;28;20195;-72
2024/01/02 03:40:39;;;;;;;1.23;0.80;;;7.40;77.70;;;;;;4925641;28;20480;-73
2024/01/02 03:43:05;;;;;;;1.40;0.80;;;7.30;78.40;;;;;;4925193;28;20567;-73
2024/01/02 03:45:31;;;;;;;1.03;0.77;;;7.30;78.70;;;;;;4932987;28;20970;-72
2024/01/02 03:47:57;;;;;;;1.37;0.80;;;7.30;78.90;;;;;;4932367;28;21339;-72
2024/01/02 03:50:23;;;;;;;2.70;0.97;;;7.20;79.60;;;;;;4926752;28;20209;-74
2024/01/02 03:52:49;;;;;;;1.00;0.70;;;7.20;80.00;;;;;;4935539;29;20177;-73
2024/01/02 03:55:14;;;;;;;2.03;0.80;;;7.20;79.70;;;;;;4935443;28;20431;-73
2024/01/02 03:57:40;;;;;;;0.93;0.70;;;7.20;79.70;;;;;;4927720;28;20539;-72
2024/01/02 04:00:07;;;;;;;1.07;0.77;;;7.20;80.60;;;;;;4930578;28;20209;-75
2024/01/02 04:02:32;;;;;;;0.80;0.60;;;7.20;80.80;;;;;;4935980;29;20194;-73
2024/01/02 04:04:58;;;;;;;2.17;0.87;;;7.20;80.90;;;;;;4933948;28;20976;-71
2024/01/02 04:07:24;;;;;;;0.83;0.73;;;7.20;81.10;;;;;;4933466;28;20185;-74
2024/01/02 04:09:51;;;;;;;0.70;0.60;;;7.20;81.10;;;;;;4930116;28;20291;-71
2024/01/02 04:12:16;;;;;;;1.40;0.70;;;7.20;81.20;;;;;;4936977;28;20189;-71
2024/01/02 04:14:42;;;;;;;0.97;0.80;;;7.10;81.50;;;;;;4950178;28;20503;-73
2024/01/02 04:17:08;;;;;;;1.37;0.70;;;7.20;81.70;;;;;;4934017;28;20560;-73
2024/01/02 04:19:34;;;;;;;0.90;0.70;;;7.10;81.90;;;;;;4936025;28;20197;-73
2024/01/02 04:21:59;;;;;;;1.57;0.70;;;7.10;82.20;;;;;;4928604;29;20196;-72
2024/01/02 04:24:25;;;;;;;2.03;0.73;;;7.10;82.20;;;;;;4931843;28;20216;-72
2024/01/02 04:26:52;;;;;;;0.80;0.70;;;7.10;82.20;;;;;;4931766;28;20212;-73
2024/01/02 04:29:18;;;;;;;1.03;0.70;;;7.10;82.50;;;;;;4933034;28;20799;-73
2024/01/02 04:31:44;;;;;;;0.93;0.60;;;7.00;82.70;;;;;;4924373;28;20464;-72
2024/01/02 04:34:09;;;;;;;1.20;0.70;;;7.00;83.30;;;;;;4930833;28;20188;-73
2024/01/02 04:36:35;;;;;;;0.90;0.77;;;6.90;83.60;;;;;;4947259;28;20427;-72
2024/01/02 04:39:01;;;;;;;0.90;0.60;;;6.90;83.70;;;;;;4933182;28;20666;-74
2024/01/02 04:41:27;;;;;;;0.70;0.50;;;6.80;83.70;;;;;;4934548;28;20218;-72
2024/01/02 04:43:52;;;;;;;3.40;0.60;;;6.80;83.70;;;;;;4932850;28;21008;-73
2024/01/02 04:46:18;;;;;;;0.77;0.60;;;6.80;83.80;;;;;;4933494;28;20201;-71
2024/01/02 04:48:43;;;;;;;1.97;0.87;;;6.80;83.70;;;;;;4932977;28;20196;-72
2024/01/02 04:51:09;;;;;;;2.97;0.90;;;6.80;84.10;;;;;;4942068;28;20668;-72
2024/01/02 04:53:34;;;;;;;1.10;0.60;;;6.70;84.30;;;;;;4942111;28;20246;-73
2024/01/02 04:56:00;;;;;;;1.50;1.10;;;6.70;84.10;;;;;;4983971;28;20185;-72
2024/01/02 04:58:26;;;;;;;1.20;0.70;;;6.70;84.10;;;;;;4938228;28;20290;-72
2024/01/02 05:00:51;;;;;;;1.50;0.80;;;6.70;84.10;;;;;;4929613;28;20216;-72
2024/01/02 05:03:17;;;;;;;2.13;0.90;;;6.70;84.30;;;;;;4930766;29;20584;-73
2024/01/02 05:05:42;;;;;;;1.30;0.70;;;6.70;84.40;;;;;;4930688;28;20312;-73
2024/01/02 05:08:08;;;;;;;1.13;0.80;;;6.70;84.60;;;;;;4932567;28;20188;-71
2024/01/02 05:10:34;;;;;;;1.00;0.60;;;6.70;84.60;;;;;;4941671;28;20599;-71
2024/01/02 05:12:59;;;;;;;0.87;0.73;;;6.70;84.70;;;;;;4931159;29;20189;-72
2024/01/02 05:15:25;;;;;;;1.17;0.83;;;6.70;84.60;;;;;;4931260;28;21006;-72
2024/01/02 05:17:50;;;;;;;3.33;1.17;;;6.70;84.90;;;;;;4931973;28;20181;-71
2024/01/02 05:20:16;;;;;;;1.77;0.90;;;6.70;84.90;;;;;;4943873;28;20205;-73
2024/01/02 05:22:42;;;;;;;0.70;0.50;;;6.70;84.70;;;;;;4932952;29;20188;-73
2024/01/02 05:25:09;;;;;;;1.37;0.70;;;6.70;85.00;;;;;;4932622;28;20518;-74
2024/01/02 05:27:34;;;;;;;1.23;0.70;;;6.70;85.20;;;;;;4931995;28;20180;-73
2024/01/02 05:30:00;;;;;;;2.50;0.80;;;6.70;85.20;;;;;;4928342;28;21125;-71
2024/01/02 05:32:26;;;;;;;2.90;0.90;;;6.70;85.50;;;;;;4931711;29;20219;-72
2024/01/02 05:34:51;;;;;;;1.73;0.80;;;6.70;85.60;;;;;;4930045;28;20185;-74
2024/01/02 05:37:18;;;;;;;1.70;0.70;;;6.60;85.90;;;;;;4944319;28;20176;-71
2024/01/02 05:39:43;;;;;;;1.67;0.90;;;6.60;86.00;;;;;;4926496;29;20185;-73
2024/01/02 05:42:09;;;;;;;1.40;0.80;;;6.60;86.00;;;;;;4930285;29;20978;-72
2024/01/02 05:44:35;;;;;;;1.20;0.70;;;6.70;85.70;;;;;;4921289;28;20718;-72
2024/01/02 05:47:00;;;;;;;1.07;0.60;;;6.70;85.70;;;;;;4927384;28;20189;-73
2024/01/02 05:49:26;;;;;;;2.07;0.80;;;6.70;85.60;;;;;;4927531;28;20215;-73
2024/01/02 05:51:51;;;;;;;1.77;0.77;;;6.70;85.50;;;;;;4924111;29;20177;-73
2024/01/02 05:54:17;;;;;;;2.10;0.73;;;6.80;85.60;;;;;;4928510;28;20275;-71
2024/01/02 05:56:43;;;;;;;2.00;0.70;;;6.80;85.70;;;;;;4930130;28;20207;-72
2024/01/02 05:59:09;;;;;;;1.20;0.80;;;6.80;85.20;;;;;;4923913;28;20195;-72
2024/01/02 06:01:35;;;;;;;1.43;0.80;;;6.90;85.20;;;;;;4926061;28;20468;-71
2024/01/02 06:04:00;;;;;;;2.97;0.70;;;6.90;85.20;;;;;;4927179;28;20215;-72
2024/01/02 06:06:26;;;;;;;0.90;0.70;;;6.80;85.50;;;;;;4930417;28;20425;-72
2024/01/02 06:08:51;;;;;;;2.20;0.80;;;6.90;85.20;;;;;;4927045;28;20267;-73
2024/01/02 06:11:17;;;;;;;0.90;0.80;;;6.90;85.50;;;;;;4925832;28;20724;-71
2024/01/02 06:13:42;;;;;;;1.30;0.90;;;6.80;85.50;;;;;;4923600;28;20215;-72
2024/01/02 06:16:11;;;;;;;1.20;0.70;;;6.80;85.50;;;;;;4928514;28;20195;-73
2024/01/02 06:18:37;;;;;;;0.97;0.70;;;6.90;85.30;;;;;;4930025;28;20199;-73
2024/01/02 06:21:04;;;;;;;0.97;0.70;;;6.90;85.50;;;;;;4918902;28;20514;-71
2024/01/02 06:23:32;;;;;;;1.50;1.00;;;6.90;85.50;;;;;;4927666;28;20472;-71
2024/01/02 06:25:57;;;;;;;1.27;0.50;;;6.90;85.50;;;;;;4930295;28;20432;-72
2024/01/02 06:28:24;;;;;;;1.77;0.70;;;6.90;85.50;;;;;;4926511;28;20421;-73
2024/01/02 06:30:50;;;;;;;0.77;0.70;;;7.00;85.30;;;;;;4920001;28;20204;-72
2024/01/02 06:33:15;;;;;;;1.37;0.80;;;7.00;85.00;;;;;;4928763;29;20800;-74
2024/01/02 06:35:41;;;;;;;2.00;0.83;;;7.00;85.00;;;;;;4930596;28;20275;-73
2024/01/02 06:38:07;;;;;;;2.10;0.80;;;7.10;84.90;;;;;;4947791;28;20637;-73
2024/01/02 06:40:33;;;;;;;1.20;0.90;;;7.10;84.60;;;;;;4931706;28;20205;-71
2024/01/02 06:42:58;;;;;;;1.33;0.73;;;7.10;84.60;;;;;;4946871;28;20413;-73
2024/01/02 06:45:24;;;;;;;1.47;0.73;;;7.10;84.70;;;;;;4939990;28;20184;-74
2024/01/02 06:47:49;;;;;;;2.13;0.90;;;7.20;84.60;;;;;;4929936;28;20188;-72
2024/01/02 06:50:16;;;;;;;1.30;1.07;;;7.20;84.40;;;;;;4926561;28;20208;-72
2024/01/02 06:52:42;;;;;;;1.10;0.73;;;7.20;84.40;;;;;;4930792;29;20247;-73
2024/01/02 06:55:08;;;;;;;2.20;0.77;;;7.20;84.60;;;;;;4931280;28;20932;-73
2024/01/02 06:57:33;;;;;;;1.13;0.80;;;7.20;84.70;;;;;;4934063;28;20204;-72
2024/01/02 06:59:59;;;;;;;2.57;0.80;;;7.20;84.40;;;;;;4927668;28;20216;-73
2024/01/02 07:02:24;;;;;;;3.10;0.80;;;7.20;84.40;;;;;;4929274;29;20902;-71
2024/01/02 07:04:50;;;;;;;1.20;0.83;;;7.30;84.70;;;;;;4933800;28;20300;-73
2024/01/02 07:07:16;;;;;;;1.10;0.70;;;7.30;84.40;;;;;;4926138;28;20871;-73
2024/01/02 07:09:41;;;;;;;1.97;1.57;;;7.30;84.30;;;;;;4931872;28;20196;-72
2024/01/02 07:12:07;;;;;;;1.07;0.80;;;7.30;84.40;;;;;;4922854;29;20200;-73
2024/01/02 07:14:33;;;;;;;2.20;1.00;;;7.30;84.60;;;;;;4929208;28;20605;-73
2024/01/02 07:16:59;;;;;;;2.47;0.80;;;7.30;84.60;;;;;;4925457;28;20194;-73
2024/01/02 07:19:25;;;;;;;1.40;0.80;;;7.30;84.40;;;;;;4929091;28;21263;-73
2024/01/02 07:21:50;;;;;;;1.53;0.83;;;7.30;85.00;;;;;;4923974;28;20209;-72
2024/01/02 07:24:17;;;;;;;1.07;0.73;;;7.30;85.00;;;;;;4928594;28;20374;-72
2024/01/02 07:26:42;;;;;;;1.73;0.90;;;7.30;85.00;;;;;;4931679;28;20648;-73
2024/01/02 07:29:08;;;;;;;1.67;0.73;;;7.30;85.00;;;;;;4933049;28;20424;-71
2024/01/02 07:31:35;;;;;;;1.03;0.77;;;7.30;85.00;;;;;;4925566;28;20239;-73
2024/01/02 07:34:01;;;;;;;0.90;0.70;;;7.30;85.00;;;;;;4931738;28;20683;-73
2024/01/02 07:36:27;;;;;;;1.33;0.83;;;7.40;84.70;;;;;;4933481;28;20459;-73
2024/01/02 07:38:53;;;;;;;2.07;1.00;;;7.50;84.40;;;;;;4932642;28;20425;-72
2024/01/02 07:41:19;;;;;;;0.80;0.60;;;7.50;84.30;;;;;;4925567;28;20474;-71
2024/01/02 07:43:44;;;;;;;2.27;1.20;;;7.50;84.60;;;;;;4932619;28;20267;-72
2024/01/02 07:46:10;;;;;;;1.17;0.80;;;7.60;84.30;;;;;;4934087;28;20185;-73
2024/01/02 07:48:36;;;;;;;1.23;0.80;;;7.60;84.00;;;;;;4935126;28;20203;-71
2024/01/02 07:51:02;;;;;;;1.30;0.90;;;7.70;83.80;;;;;;4931156;28;20637;-73
2024/01/02 07:53:28;;;;;;;1.10;0.70;;;7.70;83.70;;;;;;4935210;28;20470;-72
2024/01/02 07:55:54;;;;;;;1.47;0.80;;;7.80;83.60;;;;;;4930818;28;20436;-72
2024/01/02 07:58:19;;;;;;;1.77;0.80;;;7.80;83.80;;;;;;4947338;28;20181;-73
2024/01/02 08:00:45;;;;;;;1.30;0.90;;;7.80;84.00;;;;;;4936767;28;20529;-72
2024/01/02 08:03:10;;;;;;;1.30;0.80;;;7.80;84.30;;;;;;4933499;28;20258;-73
2024/01/02 08:05:36;;;;;;;1.13;0.93;;;7.80;84.40;;;;;;4931262;28;20189;-72
2024/01/02 08:08:03;;;;;;;5.33;1.33;;;7.80;84.40;;;;;;4931898;28;20780;-73
2024/01/02 08:10:28;;;;;;;1.40;0.90;;;7.80;84.70;;;;;;4924238;28;20219;-72
2024/01/02 08:12:54;;;;;;;1.10;0.80;;;7.90;84.40;;;;;;4933209;29;20428;-72
2024/01/02 08:15:19;;;;;;;1.63;0.77;;;7.90;84.70;;;;;;4947262;28;20652;-71
2024/01/02 08:17:46;;;;;;;0.87;0.70;;;8.00;84.40;;;;;;4933041;28;20260;-74
2024/01/02 08:20:11;;;;;;;0.90;0.70;;;8.00;84.40;;;;;;4926260;28;20213;-72
2024/01/02 08:22:37;;;;;;;1.13;0.80;;;8.10;84.10;;;;;;4931543;29;20507;-72
2024/01/02 08:25:03;;;;;;;1.17;0.63;;;8.20;84.30;;;;;;4930562;28;20217;-72
2024/01/02 08:27:29;;;;;;;1.83;0.80;;;8.20;84.40;;;;;;4933183;28;20189;-73
2024/01/02 08:29:55;;;;;;;1.47;0.87;;;8.20;84.40;;;;;;4933484;28;20460;-72
2024/01/02 08:32:21;;;;;;;1.30;0.67;;;8.20;84.40;;;;;;4930589;28;20210;-72
2024/01/02 08:34:47;;;;;;;1.53;0.73;;;8.20;84.60;;;;;;4932704;28;20268;-73
2024/01/02 08:37:13;;;;;;;1.67;0.70;;;8.30;84.10;;;;;;4930772;28;20416;-73
2024/01/02 08:39:39;;;;;;;0.93;0.60;;;8.40;83.60;;;;;;4928510;28;20494;-74
2024/01/02 08:42:05;;;;;;;1.10;0.90;;;8.50;83.00;;;;;;4924356;29;20195;-73
2024/01/02 08:44:30;;;;;;;0.80;0.60;;;8.60;82.80;;;;;;4932368;28;20640;-73
2024/01/02 08:46:56;;;;;;;2.13;0.67;;;8.60;82.70;;;;;;4928356;28;20460;-74
2024/01/02 08:49:22;;;;;;;1.87;0.67;;;8.60;82.70;;;;;;4929397;28;20212;-72
2024/01/02 08:51:48;;;;;;;0.80;0.60;;;8.80;82.10;;;;;;4920734;28;20900;-73
2024/01/02 08:54:13;;;;;;;0.93;0.70;;;8.80;81.70;;;;;;4931487;28;20205;-74
2024/01/02 08:56:39;;;;;;;1.97;0.63;;;8.90;81.70;;;;;;4932718;28;20560;-74
2024/01/02 08:59:04;;;;;;;1.77;0.90;;;8.90;81.20;;;;;;4932044;28;20189;-72
2024/01/02 09:01:30;;;;;;;0.87;0.50;;;9.00;81.10;;;;;;4926039;28;20304;-73
2024/01/02 09:03:56;;;;;;;0.80;0.57;;;9.00;81.20;;;;;;4931814;28;20223;-73
2024/01/02 09:06:21;;;;;;;0.80;0.70;;;9.00;80.90;;;;;;4930697;28;20247;-74
2024/01/02 09:08:47;;;;;;;1.10;0.60;;;9.00;81.40;;;;;;4931687;28;20189;-74
2024/01/02 09:11:13;;;;;;;2.07;0.73;;;9.00;81.50;;;;;;4936203;28;20292;-73
2024/01/02 09:13:39;;;;;;;1.50;0.60;;;8.90;81.70;;;;;;4931789;28;20192;-73
2024/01/02 09:16:08;;;;;;;0.80;0.70;;;9.00;81.10;;;;;;4946704;23;20424;-72
2024/01/02 09:18:33;;;;;;;1.50;0.80;;;9.00;81.40;;;;;;4960981;28;20600;-71
2024/01/02 09:20:59;;;;;;;0.90;0.60;;;9.10;81.20;;;;;;5017814;28;20459;-71
2024/01/02 09:23:25;;;;;;;1.00;0.70;;;9.10;81.20;;;;;;5032808;28;20212;-70
2024/01/02 09:25:53;;;;;;;1.53;0.97;;;9.10;80.90;;;;;;5033147;28;20189;-70
2024/01/02 09:28:21;;;;;;;0.83;0.50;;;9.20;80.80;;;;;;5031762;28;20185;-69
2024/01/02 09:30:47;;;;;;;1.77;0.67;;;9.30;80.50;;;;;;5029412;28;20463;-70
2024/01/02 09:33:13;;;;;;;0.83;0.60;;;9.40;80.00;;;;;;5033579;28;20416;-72
2024/01/02 09:35:38;;;;;;;0.60;0.40;;;9.50;79.60;;;;;;5038342;28;20447;-71
2024/01/02 09:38:04;;;;;;;0.60;0.50;;;9.60;79.00;;;;;;5037155;28;20193;-72
2024/01/02 09:40:45;;;;;;;0.70;0.60;;;9.60;79.20;;;;;;5031541;28;20243;-72
2024/01/02 09:43:26;;;;;;;0.60;0.50;;;9.60;78.70;;;;;;5032507;28;20964;-70
2024/01/02 09:46:06;;;;;;;1.00;0.67;;;9.70;78.60;;;;;;5027626;28;20432;-69
2024/01/02 09:48:56;;;;;;;1.90;0.50;;;9.70;78.40;;;;;;5032887;28;20517;-73
2024/01/02 09:51:38;;;;;;;0.70;0.50;;;9.80;78.30;;;;;;5024677;28;20467;-71
2024/01/02 09:54:12;;;;;;;0.70;0.50;;;9.80;78.30;;;;;;5028828;28;20416;-71
2024/01/02 09:57:15;;;;;;;0.63;0.43;;;9.80;78.30;;;;;;5032794;28;20434;-71
2024/01/02 09:59:53;;;;;;;0.70;0.60;;;9.90;77.80;;;;;;5030272;28;20507;-70
2024/01/02 10:02:29;;;;;;;0.80;0.50;;;9.90;77.60;;;;;;5030700;28;20434;-72
2024/01/02 10:05:16;;;;;;;0.70;0.50;;;9.90;77.40;;;;;;5026013;28;20631;-70
2024/01/02 10:08:04;;;;;;;0.57;0.40;;;10.00;77.30;;;;;;5032463;28;20462;-70
2024/01/02 10:10:51;;;;;;;1.03;0.57;;;10.00;77.30;;;;;;5026587;28;20455;-70
2024/01/02 10:13:25;;;;;;;1.00;0.50;;;10.10;76.80;;;;;;5036174;28;20428;-71
2024/01/02 10:16:09;;;;;;;0.70;0.60;;;10.10;76.80;;;;;;5037574;28;20438;-72
2024/01/02 10:18:40;;;;;;;1.40;1.03;;;10.10;76.80;;;;;;5035320;28;20475;-70
2024/01/02 10:21:25;;;;;;;1.63;0.60;;;10.20;76.50;;;;;;5032925;28;20478;-71
2024/01/02 10:24:13;;;;;;;0.67;0.50;;;10.20;76.50;;;;;;5031648;28;20467;-70
2024/01/02 10:26:44;;;;;;;0.70;0.50;;;10.20;76.50;;;;;;5037475;28;20449;-71
2024/01/02 10:29:16;;;;;;;1.50;0.80;;;10.30;76.40;;;;;;5028033;28;20415;-70
2024/01/02 10:31:58;;;;;;;1.13;0.50;;;10.30;76.70;;;;;;5028954;28;20459;-71
2024/01/02 10:34:33;;;;;;;1.10;0.60;;;10.30;76.80;;;;;;5035530;28;20826;-71
2024/01/02 10:37:04;;;;;;;0.90;0.53;;;10.30;76.70;;;;;;5034494;28;20931;-71
2024/01/02 10:39:51;;;;;;;0.80;0.60;;;10.30;76.80;;;;;;5032782;28;20434;-71
2024/01/02 10:42:32;;;;;;;0.60;0.40;;;10.30;77.00;;;;;;5031812;28;20439;-71
2024/01/02 10:45:10;;;;;;;0.60;0.43;;;10.30;76.70;;;;;;5028989;28;20538;-71
2024/01/02 10:47:59;;;;;;;1.10;0.70;;;10.30;77.00;;;;;;5032080;28;20420;-70
2024/01/02 10:50:32;;;;;;;1.87;0.93;;;10.30;77.00;;;;;;5031236;28;20451;-70
2024/01/02 10:53:09;;;;;;;0.80;0.60;;;10.30;76.80;;;;;;5032820;28;20432;-72
2024/01/02 10:55:49;;;;;;;1.30;0.80;;;10.30;77.00;;;;;;5034073;28;20412;-71
2024/01/02 10:58:22;;;;;;;0.90;0.50;;;10.40;76.50;;;;;;5030605;28;20423;-72
2024/01/02 11:01:17;;;;;;;0.77;0.60;;;10.40;76.50;;;;;;5027878;28;20554;-70
2024/01/02 11:03:52;;;;;;;1.60;0.60;;;10.40;76.50;;;;;;5031199;28;20514;-71
2024/01/02 11:06:31;;;;;;;6.43;0.77;;;10.50;76.20;;;;;;5031398;28;20505;-70
2024/01/02 11:09:11;;;;;;;1.50;0.60;;;10.50;76.50;;;;;;5035287;28;20438;-70
2024/01/02 11:11:40;;;;;;;1.43;0.90;;;10.50;76.20;;;;;;5027018;28;20494;-70
2024/01/02 11:14:13;;;;;;;1.27;0.80;;;10.60;76.20;;;;;;5027469;28;20468;-71
2024/01/02 11:16:42;;;;;;;1.23;0.70;;;10.60;75.90;;;;;;5031578;28;20422;-72
2024/01/02 11:19:10;;;;;;;0.70;0.50;;;10.60;75.90;;;;;;5031467;28;20816;-71
2024/01/02 11:22:05;;;;;;;0.70;0.60;;;10.60;75.70;;;;;;5026153;28;20460;-71
2024/01/02 11:24:32;;;;;;;1.43;0.60;;;10.70;75.90;;;;;;5032210;28;20464;-71
2024/01/02 11:27:03;;;;;;;0.70;0.50;;;10.70;75.40;;;;;;5026997;28;20437;-72
2024/01/02 11:29:35;;;;;;;0.97;0.60;;;10.80;75.50;;;;;;5032953;28;20432;-70
2024/01/02 11:32:10;;;;;;;0.60;0.50;;;10.80;75.10;;;;;;5027918;28;20538;-71
2024/01/02 11:34:59;;;;;;;0.73;0.60;;;10.80;75.20;;;;;;5031302;28;20435;-71
2024/01/02 11:37:53;;;;;;;1.00;0.50;;;10.90;74.80;;;;;;5030457;28;20420;-69
2024/01/02 11:40:32;;;;;;;0.67;0.50;;;10.90;74.60;;;;;;5021325;28;20459;-72
2024/01/02 11:43:19;;;;;;;2.40;0.70;;;10.90;74.60;;;;;;5034512;28;20907;-73
2024/01/02 11:45:50;;;;;;;1.00;0.60;;;10.90;75.10;;;;;;5026732;28;20443;-70
2024/01/02 11:48:53;;;;;;;1.23;0.80;;;11.00;75.20;;;;;;5030475;28;20420;-72
2024/01/02 11:51:26;;;;;;;0.67;0.50;;;10.80;75.20;;;;;;5028614;28;20455;-71
2024/01/02 11:54:22;;;;;;;1.20;0.63;;;10.80;75.80;;;;;;5030324;28;20452;-72
2024/01/02 11:56:49;;;;;;;0.97;0.70;;;10.80;75.90;;;;;;5031888;28;20502;-71
2024/01/02 11:59:25;;;;;;;0.80;0.70;;;10.70;76.20;;;;;;5030303;28;20415;-70
2024/01/02 12:02:19;;;;;;;1.30;0.70;;;10.80;76.40;;;;;;5028365;28;20458;-71
2024/01/02 12:05:19;;;;;;;1.67;0.63;;;10.80;76.50;;;;;;5029905;28;20586;-71
2024/01/02 12:07:49;;;;;;;1.10;0.70;;;10.80;76.40;;;;;;5030629;28;20586;-72
2024/01/02 12:10:17;;;;;;;0.83;0.70;;;10.70;76.50;;;;;;5023609;28;20460;-70
2024/01/02 12:12:48;;;;;;;2.20;1.07;;;10.70;76.70;;;;;;5031695;28;20555;-71
2024/01/02 12:15:32;;;;;;;1.30;0.70;;;10.60;76.80;;;;;;5032950;28;20432;-71
2024/01/02 12:18:03;;;;;;;1.30;0.70;;;10.60;77.10;;;;;;5031529;28;20471;-70
2024/01/02 12:20:43;;;;;;;1.97;0.70;;;10.60;77.10;;;;;;5024645;28;20467;-71
2024/01/02 12:23:10;;;;;;;2.80;0.90;;;10.60;77.60;;;;;;5038379;28;20946;-70
2024/01/02 12:25:39;;;;;;;1.40;0.67;;;10.60;77.60;;;;;;5034604;28;20819;-71
2024/01/02 12:28:05;;;;;;;1.20;0.77;;;10.60;77.70;;;;;;5031813;28;20754;-70
2024/01/02 12:30:47;;;;;;;1.00;0.70;;;10.50;77.80;;;;;;5031293;28;20496;-70
2024/01/02 12:33:28;;;;;;;1.00;0.70;;;10.40;78.40;;;;;;5035548;28;20435;-70
2024/01/02 12:36:06;;;;;;;2.00;0.90;;;10.40;78.70;;;;;;5034394;28;20815;-71
2024/01/02 12:39:00;;;;;;;0.90;0.70;;;10.40;78.90;;;;;;5033940;28;20535;-70
2024/01/02 12:41:28;;;;;;;2.10;1.00;;;10.30;79.20;;;;;;5021159;28;20502;-70
2024/01/02 12:43:57;;;;;;;2.77;1.10;;;10.30;79.30;;;;;;5033498;28;20870;-70
2024/01/02 12:46:52;;;;;;;1.30;0.90;;;10.30;79.30;;;;;;5034045;28;20423;-71
2024/01/02 12:49:28;;;;;;;1.90;0.90;;;10.30;79.50;;;;;;5031759;28;20436;-71
2024/01/02 12:52:04;;;;;;;1.40;0.60;;;10.20;79.50;;;;;;5029789;28;20527;-71
2024/01/02 12:54:30;;;;;;;2.60;0.90;;;10.30;79.20;;;;;;5032158;28;20514;-70
2024/01/02 12:57:02;;;;;;;1.30;0.80;;;10.30;79.30;;;;;;5032134;28;20420;-69
2024/01/02 12:59:30;;;;;;;0.80;0.60;;;10.30;79.20;;;;;;5031472;28;20422;-72
2024/01/02 13:01:57;;;;;;;0.90;0.70;;;10.30;79.00;;;;;;5029255;28;20447;-71
2024/01/02 13:04:24;;;;;;;1.70;0.90;;;10.30;79.00;;;;;;5031843;28;20551;-72